.
WxDataArchive / Data Records for 2010-03-06
2010-03-05 March 2010 2010-03-07

Data Records for Saturday, 06 March 2010

Time	Temp	Chill	HIndex	Humid	Dewpt	 Wind 	HiWind	WindDir	Rain 	Barom 
-----	----	-----	------	-----	-----	------	------	-------	-----	----- 
00:00	24.2	24.2	24.2	77	18.1	0	0	---	0.00	30.390 
00:05	24.1	24.1	24.1	77	18.0	0	0	---	0.00	30.390 
00:10	23.9	23.9	23.9	78	18.1	0	0	---	0.00	30.390 
00:15	23.8	23.8	23.8	78	18.0	0	0	---	0.00	30.392 
00:20	23.8	23.8	23.8	79	18.3	0	0	---	0.00	30.392 
00:25	23.8	23.8	23.8	79	18.3	0	0	---	0.00	30.392 
00:30	23.8	23.8	23.8	79	18.3	0	0	---	0.00	30.392 
00:35	23.8	23.8	23.8	79	18.3	0	0	---	0.00	30.392 
00:40	23.9	23.9	23.9	79	18.4	0	0	---	0.00	30.392 
00:45	23.9	23.9	23.9	79	18.4	0	0	---	0.00	30.393 
00:50	23.8	23.8	23.8	79	18.3	0	0	---	0.00	30.393 
00:55	23.6	23.6	23.6	79	18.1	0	0	---	0.00	30.393 
01:00	23.3	23.3	23.3	79	17.8	0	0	---	0.00	30.396 
01:05	23.2	23.2	23.2	79	17.7	0	0	---	0.00	30.396 
01:10	23.0	23.0	23.0	80	17.8	0	0	---	0.00	30.396 
01:15	23.0	23.0	23.0	80	17.8	0	0	---	0.00	30.399 
01:20	23.0	23.0	23.0	81	18.1	0	0	---	0.00	30.399 
01:25	22.9	22.9	22.9	81	18.0	0	0	---	0.00	30.399 
01:30	22.7	22.7	22.7	81	17.8	0	0	---	0.00	30.401 
01:35	22.4	22.4	22.4	81	17.5	0	0	---	0.00	30.401 
01:40	22.2	22.2	22.2	81	17.3	0	0	---	0.00	30.401 
01:45	22.1	22.1	22.1	81	17.2	0	0	---	0.00	30.404 
01:50	21.9	21.9	21.9	81	17.0	0	0	---	0.00	30.404 
01:55	21.8	21.8	21.8	82	17.2	0	0	---	0.00	30.404 
02:00	21.8	21.8	21.8	83	17.4	0	0	---	0.00	30.405 
02:05	21.9	21.9	21.9	83	17.5	0	0	---	0.00	30.405 
02:10	22.1	22.1	22.1	84	18.0	0	0	---	0.00	30.405 
02:15	22.1	22.1	22.1	84	18.0	0	0	---	0.00	30.413 
02:20	22.2	22.2	22.2	84	18.1	0	0	---	0.00	30.413 
02:25	22.2	22.2	22.2	84	18.1	0	0	---	0.00	30.413 
02:30	22.1	22.1	22.1	84	18.0	0	0	---	0.00	30.417 
02:35	21.9	21.9	21.9	84	17.8	0	0	---	0.00	30.417 
02:40	21.9	21.9	21.9	84	17.8	0	0	---	0.00	30.417 
02:45	21.8	21.8	21.8	84	17.7	0	0	---	0.00	30.417 
02:50	21.8	21.8	21.8	84	17.7	0	0	---	0.00	30.417 
02:55	21.8	21.8	21.8	84	17.7	0	0	---	0.00	30.417 
03:00	21.8	21.8	21.8	84	17.7	0	0	---	0.00	30.412 
03:05	21.6	21.6	21.6	84	17.5	0	0	---	0.00	30.412 
03:10	21.3	21.3	21.3	84	17.2	0	0	---	0.00	30.412 
03:15	21.1	21.1	21.1	84	17.0	0	0	---	0.00	30.407 
03:20	21.1	21.1	21.1	84	17.0	0	0	---	0.00	30.407 
03:25	21.0	21.0	21.0	84	16.9	0	0	---	0.00	30.407 
03:30	21.0	21.0	21.0	85	17.2	0	0	---	0.00	30.413 
03:35	21.0	21.0	21.0	85	17.2	0	0	---	0.00	30.413 
03:40	21.1	21.1	21.1	85	17.3	0	0	---	0.00	30.413 
03:45	21.0	21.0	21.0	85	17.2	0	0	---	0.00	30.417 
03:50	20.8	20.8	20.8	85	17.0	0	0	---	0.00	30.417 
03:55	20.6	20.6	20.6	85	16.8	0	0	---	0.00	30.417 
04:00	20.5	20.5	20.5	85	16.7	0	0	---	0.00	30.420 
04:05	20.3	20.3	20.3	85	16.5	0	0	---	0.00	30.420 
04:10	20.2	20.2	20.2	85	16.4	0	0	---	0.00	30.420 
04:15	20.2	20.2	20.2	85	16.4	0	0	---	0.00	30.423 
04:20	20.0	20.0	20.0	86	16.5	0	0	---	0.00	30.423 
04:25	19.9	19.9	19.9	86	16.4	0	0	---	0.00	30.423 
04:30	19.7	19.7	19.7	86	16.2	0	0	---	0.00	30.423 
04:35	19.7	19.7	19.7	86	16.2	0	0	---	0.00	30.423 
04:40	19.5	19.5	19.5	86	16.0	0	0	---	0.00	30.423 
04:45	19.5	19.5	19.5	86	16.0	0	0	---	0.00	30.425 
04:50	19.7	19.7	19.7	87	16.5	0	0	---	0.00	30.425 
04:55	19.7	19.7	19.7	87	16.5	0	0	---	0.00	30.425 
05:00	19.7	19.7	19.7	87	16.5	0	0	---	0.00	30.426 
05:05	19.7	19.7	19.7	87	16.5	0	0	---	0.00	30.426 
05:10	19.5	19.5	19.5	87	16.3	0	0	---	0.00	30.426 
05:15	19.5	19.5	19.5	87	16.3	0	0	---	0.00	30.433 
05:20	19.5	19.5	19.5	88	16.5	0	0	---	0.00	30.433 
05:25	19.5	19.5	19.5	88	16.5	0	0	---	0.00	30.433 
05:30	19.7	19.7	19.7	88	16.7	0	0	---	0.00	30.439 
05:35	19.5	19.5	19.5	88	16.5	0	0	---	0.00	30.439 
05:40	19.4	19.4	19.4	88	16.4	0	0	---	0.00	30.439 
05:45	19.4	19.4	19.4	88	16.4	0	0	---	0.00	30.443 
05:50	19.4	19.4	19.4	88	16.4	0	0	---	0.00	30.443 
05:55	19.4	19.4	19.4	88	16.4	0	0	---	0.00	30.443 
06:00	19.2	19.2	19.2	88	16.2	0	0	---	0.00	30.446 
06:05	19.2	19.2	19.2	88	16.2	0	0	---	0.00	30.446 
06:10	19.1	19.1	19.1	88	16.1	0	0	---	0.00	30.446 
06:15	19.1	19.1	19.1	88	16.1	0	0	---	0.00	30.452 
06:20	19.1	19.1	19.1	88	16.1	0	0	---	0.00	30.452 
06:25	19.1	19.1	19.1	88	16.1	0	0	---	0.00	30.452 
06:30	19.1	19.1	19.1	88	16.1	0	0	---	0.00	30.453 
06:35	18.9	18.9	18.9	88	15.9	0	0	---	0.00	30.453 
06:40	18.8	18.8	18.8	88	15.8	0	0	---	0.00	30.453 
06:45	18.8	18.8	18.8	88	15.8	0	0	---	0.00	30.456 
06:50	18.8	18.8	18.8	88	15.8	0	0	---	0.00	30.456 
06:55	18.6	18.6	18.6	88	15.6	0	0	---	0.00	30.456 
07:00	18.4	18.4	18.4	88	15.5	0	0	---	0.00	30.457 
07:05	18.3	18.3	18.3	88	15.4	0	0	---	0.00	30.457 
07:10	18.3	18.3	18.3	88	15.4	0	0	---	0.00	30.457 
07:15	18.1	18.1	18.1	88	15.2	0	0	---	0.00	30.458 
07:20	18.0	18.0	18.0	88	15.1	0	0	---	0.00	30.458 
07:25	17.8	17.8	17.8	88	14.9	0	0	---	0.00	30.458 
07:30	17.8	17.8	17.8	88	14.9	0	0	---	0.00	30.454 
07:35	18.1	18.1	18.1	89	15.4	0	0	---	0.00	30.454 
07:40	18.6	18.6	18.6	89	15.9	0	0	---	0.00	30.454 
07:45	19.2	19.2	19.2	90	16.8	0	0	---	0.00	30.451 
07:50	19.9	19.9	19.9	90	17.5	0	0	---	0.00	30.451 
07:55	20.3	20.3	20.3	90	17.8	0	0	---	0.00	30.451 
08:00	20.8	20.8	20.8	90	18.3	0	0	---	0.00	30.457 
08:05	21.4	21.4	21.4	90	18.9	0	0	---	0.00	30.457 
08:10	22.2	22.2	22.2	90	19.7	0	0	---	0.00	30.457 
08:15	23.0	23.0	23.0	90	20.5	0	0	---	0.00	30.460 
08:20	23.6	23.6	23.6	90	21.1	0	0	---	0.00	30.460 
08:25	24.4	24.4	24.4	90	21.9	0	0	---	0.00	30.460 
08:30	25.3	25.3	25.3	90	22.8	0	0	---	0.00	30.458 
08:35	26.0	26.0	26.0	89	23.2	0	0	---	0.00	30.458 
08:40	26.9	26.9	26.9	88	23.8	0	0	---	0.00	30.458 
08:45	27.8	27.8	27.8	87	24.4	0	1	112	0.00	30.457 
08:50	28.7	28.7	28.7	84	24.5	0	1	112	0.00	30.457 
08:55	29.4	29.4	29.4	83	24.9	0	0	---	0.00	30.457 
09:00	30.0	30.0	30.0	81	24.9	0	1	112	0.00	30.455 
09:05	31.2	31.2	31.2	77	24.8	0	2	112	0.00	30.455 
09:10	31.9	31.9	31.9	75	24.9	0	1	112	0.00	30.455 
09:15	32.5	32.5	32.5	74	25.2	0	1	112	0.00	30.458 
09:20	33.1	33.1	33.1	73	25.4	0	2	112	0.00	30.458 
09:25	33.7	33.7	33.7	70	25.0	0	2	112	0.00	30.458 
09:30	34.3	34.3	34.3	69	25.2	0	1	112	0.00	30.460 
09:35	35.0	35.0	35.0	67	25.2	0	1	112	0.00	30.460 
09:40	35.9	35.9	35.9	65	25.3	0	1	112	0.00	30.460 
09:45	36.6	36.6	36.6	62	24.8	0	1	45	0.00	30.459 
09:50	37.0	37.0	37.0	62	25.2	0	2	45	0.00	30.459 
09:55	38.0	38.0	38.0	58	24.6	0	2	45	0.00	30.459 
10:00	38.5	38.5	38.5	56	24.2	0	3	45	0.00	30.457 
10:05	38.6	38.6	38.6	55	23.8	0	2	45	0.00	30.457 
10:10	38.9	38.9	38.9	55	24.1	0	2	45	0.00	30.457 
10:15	39.3	39.3	39.3	53	23.6	0	1	45	0.00	30.464 
10:20	39.8	39.8	39.8	51	23.2	0	2	45	0.00	30.464 
10:25	40.3	40.3	40.3	50	23.2	0	2	45	0.00	30.464 
10:30	40.8	40.8	40.8	48	22.6	0	4	112	0.00	30.462 
10:35	40.8	40.8	40.8	47	22.1	0	2	45	0.00	30.462 
10:40	40.9	40.9	40.9	48	22.7	0	2	45	0.00	30.462 
10:45	41.5	41.5	41.5	50	24.3	0	2	22	0.00	30.460 
10:50	41.8	41.8	41.8	44	21.5	0	2	22	0.00	30.460 
10:55	41.9	41.9	41.9	45	22.1	0	1	0	0.00	30.460 
11:00	41.9	41.9	41.9	42	20.5	0	2	338	0.00	30.459 
11:05	42.3	42.3	42.3	43	21.4	1	3	338	0.00	30.459 
11:10	42.3	42.3	42.3	43	21.4	0	1	0	0.00	30.459 
11:15	42.5	42.5	42.5	42	21.0	0	2	0	0.00	30.460 
11:20	42.8	42.8	42.8	42	21.3	0	2	0	0.00	30.460 
11:25	42.6	42.6	42.6	40	20.0	2	4	112	0.00	30.460 
11:30	42.5	42.5	42.5	44	22.1	1	4	90	0.00	30.457 
11:35	42.8	42.8	42.8	42	21.3	0	2	90	0.00	30.457 
11:40	43.1	43.1	43.1	42	21.6	0	4	90	0.00	30.457 
11:45	42.6	42.6	42.6	40	20.0	2	5	90	0.00	30.451 
11:50	42.5	42.5	42.5	43	21.6	1	4	90	0.00	30.451 
11:55	42.8	42.8	42.8	43	21.9	1	4	90	0.00	30.451 
12:00	43.2	43.2	43.2	41	21.1	1	3	90	0.00	30.444 
12:05	43.6	43.6	43.6	40	20.9	0	2	90	0.00	30.444 
12:10	43.8	43.8	43.8	41	21.7	1	3	90	0.00	30.444 
12:15	43.8	43.8	43.8	41	21.7	0	2	90	0.00	30.443 
12:20	43.8	43.8	43.8	38	19.9	0	2	68	0.00	30.443 
12:25	43.6	43.6	43.6	37	19.1	0	2	68	0.00	30.443 
12:30	43.6	43.6	43.6	39	20.3	0	1	68	0.00	30.441 
12:35	43.9	43.9	43.9	40	21.2	0	2	68	0.00	30.441 
12:40	44.1	44.1	44.1	38	20.1	1	4	112	0.00	30.441 
12:45	44.1	44.1	44.1	42	22.5	1	4	112	0.00	30.433 
12:50	43.8	43.8	43.8	42	22.2	2	4	90	0.00	30.433 
12:55	43.9	43.9	43.9	41	21.7	1	4	112	0.00	30.433 
13:00	44.1	44.1	44.1	39	20.7	1	5	112	0.00	30.425 
13:05	44.1	44.1	44.1	38	20.1	1	3	90	0.00	30.425 
13:10	44.5	44.5	44.5	40	21.7	0	2	90	0.00	30.425 
13:15	44.9	44.9	44.9	39	21.5	1	4	112	0.00	30.419 
13:20	45.2	45.2	45.2	36	19.8	1	4	248	0.00	30.419 
13:25	45.5	45.5	45.5	37	20.8	0	2	248	0.00	30.419 
13:30	45.7	45.7	45.7	37	20.9	0	1	292	0.00	30.414 
13:35	45.7	45.7	45.7	38	21.6	0	3	248	0.00	30.414 
13:40	45.5	45.5	45.5	35	19.5	1	3	90	0.00	30.414 
13:45	45.5	45.5	45.5	36	20.1	1	5	90	0.00	30.406 
13:50	45.8	45.8	45.8	37	21.0	1	2	22	0.00	30.406 
13:55	46.0	46.0	46.0	37	21.2	0	2	338	0.00	30.406 
14:00	46.0	46.0	46.0	35	19.9	0	3	338	0.00	30.401 
14:05	46.4	46.4	46.4	37	21.6	1	3	248	0.00	30.401 
14:10	47.0	47.0	47.0	36	21.4	1	3	248	0.00	30.401 
14:15	47.3	47.3	47.3	35	21.0	0	1	248	0.00	30.398 
14:20	47.6	47.6	47.6	32	19.2	1	3	248	0.00	30.398 
14:25	47.4	47.4	47.4	33	19.8	1	2	202	0.00	30.398 
14:30	47.4	47.4	47.4	35	21.1	0	2	45	0.00	30.395 
14:35	47.4	47.4	47.4	33	19.8	1	3	248	0.00	30.395 
14:40	47.1	47.1	47.1	31	18.0	0	1	338	0.00	30.395 
14:45	46.8	46.8	46.8	35	20.6	1	3	22	0.00	30.390 
14:50	46.5	46.5	46.5	34	19.7	1	3	315	0.00	30.390 
14:55	46.8	46.8	46.8	38	22.5	0	3	225	0.00	30.390 
15:00	47.3	47.3	47.3	35	21.0	0	3	315	0.00	30.387 
15:05	47.6	47.6	47.6	32	19.2	1	4	248	0.00	30.387 
15:10	47.6	47.6	47.6	34	20.6	1	2	248	0.00	30.387 
15:15	48.0	48.0	48.0	33	20.3	1	3	248	0.00	30.387 
15:20	48.5	48.5	48.5	33	20.7	1	3	248	0.00	30.387 
15:25	48.8	48.8	48.8	32	20.3	1	4	248	0.00	30.387 
15:30	48.9	48.9	48.9	34	21.8	0	2	225	0.00	30.381 
15:35	48.9	48.9	48.9	34	21.8	1	3	270	0.00	30.381 
15:40	48.8	48.8	48.8	33	21.0	1	3	270	0.00	30.381 
15:45	48.6	48.6	48.6	31	19.3	0	4	248	0.00	30.381 
15:50	48.0	48.0	48.0	31	18.8	0	2	315	0.00	30.381 
15:55	47.6	47.6	47.6	31	18.5	0	2	315	0.00	30.381 
16:00	47.4	47.4	47.4	34	20.5	0	3	315	0.00	30.380 
16:05	47.7	47.7	47.7	33	20.0	1	3	315	0.00	30.380 
16:10	47.4	47.4	47.4	32	19.0	1	4	248	0.00	30.380 
16:15	47.3	47.3	47.3	34	20.4	1	2	270	0.00	30.378 
16:20	47.3	47.3	47.3	34	20.4	0	2	270	0.00	30.378 
16:25	47.1	47.1	47.1	30	17.3	0	2	338	0.00	30.378 
16:30	47.0	47.0	47.0	31	18.0	1	4	338	0.00	30.373 
16:35	47.0	47.0	47.0	32	18.7	0	1	338	0.00	30.373 
16:40	47.0	47.0	47.0	33	19.4	0	1	338	0.00	30.373 
16:45	46.8	46.8	46.8	34	19.9	0	2	338	0.00	30.370 
16:50	47.0	47.0	47.0	35	20.8	0	1	338	0.00	30.370 
16:55	47.0	47.0	47.0	35	20.8	1	3	270	0.00	30.370 
17:00	46.8	46.8	46.8	34	19.9	0	1	270	0.00	30.365 
17:05	46.7	46.7	46.7	35	20.5	0	2	270	0.00	30.365 
17:10	46.7	46.7	46.7	36	21.2	0	1	270	0.00	30.365 
17:15	46.5	46.5	46.5	36	21.0	0	2	270	0.00	30.362 
17:20	46.5	46.5	46.5	37	21.6	0	1	270	0.00	30.362 
17:25	46.4	46.4	46.4	37	21.6	0	2	270	0.00	30.362 
17:30	46.4	46.4	46.4	39	22.8	0	1	270	0.00	30.359 
17:35	46.2	46.2	46.2	37	21.4	0	1	270	0.00	30.359 
17:40	46.1	46.1	46.1	37	21.3	0	1	270	0.00	30.359 
17:45	46.0	46.0	46.0	39	22.4	0	2	270	0.00	30.357 
17:50	46.1	46.1	46.1	38	21.9	0	2	270	0.00	30.357 
17:55	46.1	46.1	46.1	38	21.9	0	2	270	0.00	30.357 
18:00	45.8	45.8	45.8	39	22.3	0	1	270	0.00	30.357 
18:05	45.5	45.5	45.5	39	22.0	0	0	---	0.00	30.357 
18:10	45.1	45.1	45.1	39	21.6	0	0	---	0.00	30.357 
18:15	44.9	44.9	44.9	39	21.5	0	0	---	0.00	30.357 
18:20	44.6	44.6	44.6	40	21.8	0	0	---	0.00	30.357 
18:25	44.2	44.2	44.2	40	21.4	0	0	---	0.00	30.357 
18:30	43.8	43.8	43.8	40	21.1	0	0	---	0.00	30.355 
18:35	43.2	43.2	43.2	41	21.1	0	0	---	0.00	30.355 
18:40	42.6	42.6	42.6	43	21.7	0	0	---	0.00	30.355 
18:45	41.9	41.9	41.9	44	21.6	0	0	---	0.00	30.357 
18:50	41.3	41.3	41.3	45	21.6	0	0	---	0.00	30.357 
18:55	40.8	40.8	40.8	45	21.1	0	0	---	0.00	30.357 
19:00	40.1	40.1	40.1	46	21.0	0	0	---	0.00	30.357 
19:05	39.5	39.5	39.5	48	21.5	0	0	---	0.00	30.357 
19:10	38.9	38.9	38.9	50	21.9	0	0	---	0.00	30.357 
19:15	38.5	38.5	38.5	51	22.0	0	0	---	0.00	30.357 
19:20	38.2	38.2	38.2	52	22.1	0	0	---	0.00	30.357 
19:25	37.8	37.8	37.8	53	22.2	0	0	---	0.00	30.357 
19:30	37.3	37.3	37.3	54	22.2	0	0	---	0.00	30.355 
19:35	37.0	37.0	37.0	56	22.8	0	2	270	0.00	30.355 
19:40	36.8	36.8	36.8	57	23.0	0	0	---	0.00	30.355 
19:45	36.5	36.5	36.5	57	22.7	0	0	---	0.00	30.348 
19:50	36.2	36.2	36.2	58	22.9	0	0	---	0.00	30.348 
19:55	35.9	35.9	35.9	58	22.6	0	0	---	0.00	30.348 
20:00	35.5	35.5	35.5	58	22.2	0	0	---	0.00	30.346 
20:05	35.0	35.0	35.0	59	22.1	0	0	---	0.00	30.346 
20:10	34.6	34.6	34.6	60	22.2	0	0	---	0.00	30.346 
20:15	34.1	34.1	34.1	61	22.1	0	0	---	0.00	30.336 
20:20	33.8	33.8	33.8	62	22.2	0	1	270	0.00	30.336 
20:25	33.5	33.5	33.5	63	22.3	0	0	---	0.00	30.336 
20:30	33.2	33.2	33.2	63	22.0	0	0	---	0.00	30.331 
20:35	32.9	32.9	32.9	64	22.1	0	1	270	0.00	30.331 
20:40	32.8	32.8	32.8	65	22.3	0	0	---	0.00	30.331 
20:45	32.5	32.5	32.5	65	22.1	0	0	---	0.00	30.337 
20:50	32.4	32.4	32.4	66	22.3	0	0	---	0.00	30.337 
20:55	32.1	32.1	32.1	66	22.0	0	0	---	0.00	30.337 
21:00	31.8	31.8	31.8	67	22.1	0	0	---	0.00	30.340 
21:05	31.5	31.5	31.5	67	21.8	0	0	---	0.00	30.340 
21:10	31.2	31.2	31.2	68	21.9	0	0	---	0.00	30.340 
21:15	30.9	30.9	30.9	68	21.6	0	0	---	0.00	30.332 
21:20	30.7	30.7	30.7	69	21.8	0	1	270	0.00	30.332 
21:25	30.4	30.4	30.4	70	21.8	0	0	---	0.00	30.332 
21:30	30.1	30.1	30.1	71	21.9	0	0	---	0.00	30.326 
21:35	30.0	30.0	30.0	71	21.8	0	0	---	0.00	30.326 
21:40	29.8	29.8	29.8	72	21.9	0	0	---	0.00	30.326 
21:45	29.7	29.7	29.7	72	21.8	0	0	---	0.00	30.322 
21:50	29.5	29.5	29.5	73	21.9	0	0	---	0.00	30.322 
21:55	29.3	29.3	29.3	73	21.7	0	0	---	0.00	30.322 
22:00	29.1	29.1	29.1	74	21.9	0	0	---	0.00	30.320 
22:05	29.0	29.0	29.0	74	21.8	0	0	---	0.00	30.320 
22:10	28.8	28.8	28.8	75	21.9	0	0	---	0.00	30.320 
22:15	28.5	28.5	28.5	75	21.6	0	0	---	0.00	30.318 
22:20	28.4	28.4	28.4	75	21.5	0	0	---	0.00	30.318 
22:25	28.1	28.1	28.1	75	21.2	0	0	---	0.00	30.318 
22:30	27.9	27.9	27.9	76	21.3	0	0	---	0.00	30.317 
22:35	27.6	27.6	27.6	77	21.4	0	0	---	0.00	30.317 
22:40	27.6	27.6	27.6	77	21.4	0	0	---	0.00	30.317 
22:45	27.5	27.5	27.5	78	21.6	0	0	---	0.00	30.316 
22:50	27.5	27.5	27.5	79	21.9	0	0	---	0.00	30.316 
22:55	27.3	27.3	27.3	79	21.7	0	0	---	0.00	30.316 
23:00	27.3	27.3	27.3	79	21.7	0	0	---	0.00	30.317 
23:05	27.6	27.6	27.6	80	22.3	0	0	---	0.00	30.317 
23:10	27.6	27.6	27.6	79	22.0	0	0	---	0.00	30.317 
23:15	27.6	27.6	27.6	80	22.3	0	0	---	0.00	30.316 
23:20	27.8	27.8	27.8	80	22.4	0	0	---	0.00	30.316 
23:25	27.8	27.8	27.8	80	22.4	0	0	---	0.00	30.316 
23:30	27.8	27.8	27.8	80	22.4	0	0	---	0.00	30.315 
23:35	27.6	27.6	27.6	80	22.3	0	0	---	0.00	30.315 
23:40	27.6	27.6	27.6	80	22.3	0	0	---	0.00	30.315 
23:45	27.6	27.6	27.6	80	22.3	0	0	---	0.00	30.311 
23:50	27.6	27.6	27.6	80	22.3	0	0	---	0.00	30.311 
23:55	27.6	27.6	27.6	81	22.5	0	0	---	0.00	30.311 

CoCoRaHS
IN-AL-39
A2 Web Hosting
Creative Commons License
GoDaddy
search engine by freefind advanced

loaded 2018-11-20 06:13:54 • last modified 2010-11-18 10:43:29
Privacy PolicyDisclaimer
• wx.awcolley.com is powered by PmWiki v.2002016 •
• all content (unless otherwise noted) © 2018 A W Colley